Guam Agana, GU

3:36 PM ChST on 五月 26, 2017 (GMT +1000)
Guam International

天気 に付いての歴史 PGUM - 三月, 2017

Change the Weather History Date:

火曜日, 三月 21, 2017

  Actual Average Record
Temperature  
平均温度 82 °F -  
最高温度 86 °F 84 °F 89 °F (2013)
最低温度 75 °F 73 °F 72 °F (1997)
Cooling Degree Days 16    
Growing Degree Days 32 (Base 50)    
Moisture  
露点温度 77 °F    
Average Humidity 93    
Maximum Humidity 100    
Minimum Humidity 68    
降水確率  
降水確率 0.20 インチ - - ()
海面圧  
海面圧 29.90 インチ    
 
風速 8 Mph (東南東)    
最大風速 21 Mph    
Max Gust Speed 28 Mph    
視程 6 マイル    
イベント    
Averages and records for this station are not official NWS values.
T = Trace of Precipitation, MM = Missing Value Source: NWS Daily Summary

Daily Weather History Graph

Daily Weather History Graph

Search for Another Location

Airport or City:

Trip Planner

Search our weather history database for the weather conditions in past years. The results will help you decide how hot, cold, wet, or windy it might be!

Date:

天文

Mar. 21, 2017 入り
実時間 6:24 AM ChST 6:31 PM ChST
常用薄明 6:03 AM ChST 6:52 PM ChST
航海薄明 5:38 AM ChST 7:17 PM ChST
天文薄明 5:13 AM ChST 7:42 PM ChST
12:44 AM ChST (3/21) 12:29 PM ChST (3/21)
可視光の長さ 12h 49m
可照時間
12h 07m
第 4 四半期, 46% of the Moon is Illuminated
3月 21
第 4 四半期
3月 28
新しい
4月 4
上弦
4月 11
満月
4月 19
第 4 四半期

Hourly Weather History & Observations

時間 (ChST) 温度 体感気温(暑さ) 露点温度 湿度 気圧 視程 Wind Dir 風速 突風の速度 Precip イベント 現在の気象状況
12:36 AM 80.6 °F 87.1 °F 77.0 °F 89% 29.91 インチ 10.0 マイル 6.9 Mph - N/A  
12:54 AM 80.1 °F 85.8 °F 77.0 °F 90% 29.88 インチ 8.0 マイル 11.5 Mph - N/A  
1:30 AM 78.8 °F - 78.8 °F 100% 29.90 インチ 2.5 マイル 東南東 9.2 Mph - 0.01 インチ
1:54 AM 78.1 °F - 78.1 °F 100% 29.87 インチ 3.0 マイル 5.8 Mph - 0.02 インチ 小雨
2:33 AM 78.8 °F - 77.0 °F 94% 29.89 インチ 2.5 マイル 5.8 Mph - 0.00 インチ  
2:36 AM 78.8 °F - 78.8 °F 100% 29.89 インチ 1.8 マイル 5.8 Mph - 0.00 インチ 小雨
2:46 AM 78.8 °F - 77.0 °F 94% 29.88 インチ 3.0 マイル 東南東 6.9 Mph - 0.01 インチ 小雨
2:54 AM 78.1 °F - 78.1 °F 100% 29.86 インチ 2.5 マイル 東南東 4.6 Mph - 0.01 インチ 小雨
2:59 AM 78.8 °F - 78.8 °F 100% 29.88 インチ 1.8 マイル 5.8 Mph - 0.00 インチ 小雨
3:08 AM 78.8 °F - 78.8 °F 100% 29.88 インチ 2.0 マイル 6.9 Mph - 0.01 インチ 小雨
3:18 AM 78.8 °F - 78.8 °F 100% 29.88 インチ 2.0 マイル 東南東 9.2 Mph - 0.02 インチ 小雨
3:25 AM 78.8 °F - 78.8 °F 100% 29.88 インチ 1.2 マイル 東南東 5.8 Mph - 0.03 インチ 小雨
3:36 AM 78.8 °F - 78.8 °F 100% 29.88 インチ 2.5 マイル 東南東 6.9 Mph - 0.03 インチ 小雨
3:40 AM 78.8 °F - 78.8 °F 100% 29.88 インチ 2.5 マイル 東南東 6.9 Mph - 0.03 インチ  
3:52 AM 78.8 °F - 78.8 °F 100% 29.88 インチ 1.0 マイル 東南東 10.4 Mph 17.3 Mph 0.07 インチ 大雨
3:54 AM 78.1 °F - 78.1 °F 100% 29.86 インチ 0.8 マイル 東南東 12.7 Mph 17.3 Mph 0.10 インチ 大雨
4:01 AM 77.0 °F - 77.0 °F 100% 29.88 インチ 1.0 マイル 10.4 Mph - 0.05 インチ 大雨
4:14 AM 77.0 °F - 77.0 °F 100% 29.88 インチ 3.0 マイル 8.1 Mph - 0.09 インチ 小雨
4:26 AM 77.0 °F - 77.0 °F 100% 29.88 インチ 10.0 マイル 南東 5.8 Mph - 0.09 インチ  
4:36 AM 77.0 °F - 77.0 °F 100% 29.88 インチ 10.0 マイル 東南東 6.9 Mph - 0.10 インチ   だいたい曇
4:42 AM 77.0 °F - 77.0 °F 100% 29.88 インチ 10.0 マイル 東南東 5.8 Mph - 0.10 インチ   だいたい曇
4:51 AM 77.0 °F - 77.0 °F 100% 29.88 インチ 10.0 マイル 4.6 Mph - 0.10 インチ   やや曇
4:54 AM 78.1 °F - 77.0 °F 96% 29.86 インチ 10.0 マイル 5.8 Mph - 0.10 インチ   やや曇
5:54 AM 78.1 °F - 77.0 °F 96% 29.87 インチ 10.0 マイル 5.8 Mph - N/A   やや曇
6:54 AM 80.1 °F 86.4 °F 78.1 °F 94% 29.88 インチ 10.0 マイル 変数 5.8 Mph - N/A   だいたい曇
6:59 AM 78.8 °F - 78.8 °F 100% 29.92 インチ 1.8 マイル 20.7 Mph 27.6 Mph 0.00 インチ
7:06 AM 77.0 °F - 77.0 °F 100% 29.91 インチ 1.2 マイル 16.1 Mph 27.6 Mph 0.04 インチ 小雨
7:12 AM 78.8 °F - 77.0 °F 94% 29.91 インチ 2.0 マイル 10.4 Mph 17.3 Mph 0.05 インチ 小雨
7:16 AM 78.8 °F - 78.8 °F 100% 29.91 インチ 3.0 マイル 東南東 10.4 Mph 17.3 Mph 0.05 インチ 小雨
7:21 AM 78.8 °F - 78.8 °F 100% 29.91 インチ 9.0 マイル 南東 10.4 Mph 18.4 Mph 0.05 インチ  
7:54 AM 79.0 °F - 78.1 °F 97% 29.89 インチ 10.0 マイル 東南東 9.2 Mph - 0.05 インチ   やや曇
8:32 AM 80.6 °F 88.1 °F 78.8 °F 94% 29.93 インチ 10.0 マイル 東南東 9.2 Mph - 0.00 インチ  
8:46 AM 78.8 °F - 78.8 °F 100% 29.94 インチ 2.5 マイル 13.8 Mph 24.2 Mph 0.00 インチ 小雨
8:54 AM 79.0 °F - 78.1 °F 97% 29.91 インチ 3.0 マイル 東南東 12.7 Mph 18.4 Mph 0.01 インチ 小雨
9:07 AM 80.6 °F 88.1 °F 78.8 °F 94% 29.94 インチ 10.0 マイル 東南東 10.4 Mph - 0.00 インチ  
9:27 AM 80.6 °F 88.1 °F 78.8 °F 94% 29.95 インチ 10.0 マイル 東南東 9.2 Mph - 0.00 インチ  
9:38 AM 80.6 °F 88.1 °F 78.8 °F 94% 29.95 インチ 10.0 マイル 東南東 8.1 Mph - 0.00 インチ  
9:54 AM 82.0 °F 91.6 °F 79.0 °F 90% 29.91 インチ 9.0 マイル 東南東 11.5 Mph - 0.00 インチ  
10:04 AM 82.4 °F 92.4 °F 78.8 °F 89% 29.94 インチ 10.0 マイル 東南東 12.7 Mph 19.6 Mph N/A   だいたい曇
10:25 AM 80.6 °F 87.1 °F 77.0 °F 89% 29.94 インチ 7.0 マイル 東南東 12.7 Mph 23.0 Mph 0.00 インチ 小雨
10:33 AM 82.4 °F 92.4 °F 78.8 °F 89% 29.94 インチ 10.0 マイル 12.7 Mph - 0.00 インチ   だいたい曇
10:54 AM 82.9 °F 93.8 °F 79.0 °F 88% 29.92 インチ 10.0 マイル 11.5 Mph - 0.00 インチ   だいたい曇
11:54 AM 84.9 °F 96.6 °F 78.1 °F 80% 29.90 インチ 10.0 マイル 東南東 10.4 Mph - N/A   所により曇
12:41 PM 84.2 °F 94.1 °F 77.0 °F 79% 29.91 インチ 10.0 マイル 東南東 9.2 Mph 17.3 Mph N/A   だいたい曇
12:54 PM 86.0 °F 96.9 °F 77.0 °F 74% 29.88 インチ 10.0 マイル 東南東 10.4 Mph 19.6 Mph N/A   だいたい曇
1:08 PM 84.2 °F 92.3 °F 75.2 °F 74% 29.90 インチ 10.0 マイル 東南東 11.5 Mph - N/A   だいたい曇
1:47 PM 86.0 °F 96.9 °F 77.0 °F 74% 29.89 インチ 10.0 マイル 10.4 Mph - N/A   だいたい曇
1:54 PM 86.0 °F 96.9 °F 77.0 °F 74% 29.87 インチ 10.0 マイル 東南東 9.2 Mph - N/A   だいたい曇
2:17 PM 86.0 °F 95.1 °F 75.2 °F 70% 29.88 インチ 10.0 マイル 13.8 Mph 20.7 Mph N/A   やや曇
2:54 PM 84.9 °F 93.3 °F 75.0 °F 72% 29.86 インチ 10.0 マイル 10.4 Mph - N/A   やや曇
3:54 PM 84.0 °F 91.9 °F 75.0 °F 74% 29.85 インチ 10.0 マイル 東南東 11.5 Mph - N/A  
4:54 PM 82.9 °F 90.8 °F 75.9 °F 79% 29.86 インチ 10.0 マイル 5.8 Mph - N/A  
5:50 PM 80.6 °F 88.1 °F 78.8 °F 94% 29.89 インチ 5.0 マイル 東北東 6.9 Mph - 0.00 インチ 小雨
5:54 PM 81.0 °F 88.6 °F 78.1 °F 91% 29.87 インチ 6.0 マイル 5.8 Mph - 0.00 インチ 小雨
6:02 PM 80.6 °F 87.1 °F 77.0 °F 89% 29.90 インチ 10.0 マイル 5.8 Mph - 0.00 インチ  
6:19 PM 78.8 °F - 77.0 °F 94% 29.90 インチ 7.0 マイル 東南東 5.8 Mph - 0.00 インチ  
6:24 PM 78.8 °F - 77.0 °F 94% 29.90 インチ 2.5 マイル 東南東 8.1 Mph - 0.00 インチ 小雨
6:33 PM 77.0 °F - 75.2 °F 94% 29.90 インチ 1.8 マイル 東南東 6.9 Mph - 0.00 インチ 小雨
6:38 PM 77.0 °F - 75.2 °F 94% 29.90 インチ 3.0 マイル 4.6 Mph - 0.01 インチ 小雨
6:39 PM - - - N/A% - - - - N/A   情報なし
6:51 PM 77.0 °F - 75.2 °F 94% 29.91 インチ 10.0 マイル 6.9 Mph - 0.01 インチ  
6:54 PM 77.0 °F - 75.9 °F 96% 29.89 インチ 4.0 マイル 東南東 4.6 Mph - 0.01 インチ   霧雨(弱)
7:54 PM 78.1 °F - 77.0 °F 96% 29.90 インチ 10.0 マイル 4.6 Mph - 0.00 インチ  
8:54 PM 78.1 °F - 77.0 °F 96% 29.92 インチ 10.0 マイル 北東 9.2 Mph - 0.00 インチ  
9:54 PM 79.0 °F - 77.0 °F 94% 29.92 インチ 10.0 マイル 東北東 6.9 Mph - N/A   だいたい曇
10:54 PM 79.0 °F - 75.9 °F 90% 29.92 インチ 10.0 マイル 東北東 10.4 Mph - N/A   やや曇
11:24 PM 77.0 °F - 75.2 °F 94% 29.95 インチ 1.8 マイル 10.4 Mph 18.4 Mph 0.00 インチ
11:54 PM 75.9 °F - 75.9 °F 100% 29.92 インチ 1.2 マイル ほぼ無風 ほぼ無風 - 0.19 インチ 大雨